sensor_id;sensor_type;location;lat;lon;timestamp;P1;durP1;ratioP1;P2;durP2;ratioP2
44476;SDS011;30180;44.788;10.366;2022-11-20T00:01:19;8.30;;;4.43;;
44476;SDS011;30180;44.788;10.366;2022-11-20T00:03:48;9.23;;;4.40;;
44476;SDS011;30180;44.788;10.366;2022-11-20T00:06:19;8.73;;;4.50;;
44476;SDS011;30180;44.788;10.366;2022-11-20T00:08:48;7.20;;;3.97;;
44476;SDS011;30180;44.788;10.366;2022-11-20T00:11:18;9.55;;;4.18;;
44476;SDS011;30180;44.788;10.366;2022-11-20T00:13:48;9.35;;;4.72;;
44476;SDS011;30180;44.788;10.366;2022-11-20T00:16:19;8.10;;;4.38;;
44476;SDS011;30180;44.788;10.366;2022-11-20T00:18:48;8.32;;;4.40;;
44476;SDS011;30180;44.788;10.366;2022-11-20T00:21:17;9.10;;;4.45;;
44476;SDS011;30180;44.788;10.366;2022-11-20T00:23:48;10.18;;;4.63;;
44476;SDS011;30180;44.788;10.366;2022-11-20T00:26:20;11.80;;;4.63;;
44476;SDS011;30180;44.788;10.366;2022-11-20T00:28:50;6.93;;;4.30;;
44476;SDS011;30180;44.788;10.366;2022-11-20T00:31:20;11.57;;;4.80;;
44476;SDS011;30180;44.788;10.366;2022-11-20T00:33:48;7.38;;;4.28;;
44476;SDS011;30180;44.788;10.366;2022-11-20T00:36:17;10.75;;;4.35;;
44476;SDS011;30180;44.788;10.366;2022-11-20T00:38:50;8.77;;;4.40;;
44476;SDS011;30180;44.788;10.366;2022-11-20T00:41:19;8.95;;;4.60;;
44476;SDS011;30180;44.788;10.366;2022-11-20T00:43:48;7.63;;;4.28;;
44476;SDS011;30180;44.788;10.366;2022-11-20T00:46:17;7.38;;;3.88;;
44476;SDS011;30180;44.788;10.366;2022-11-20T00:48:46;8.88;;;4.50;;
44476;SDS011;30180;44.788;10.366;2022-11-20T00:51:15;9.63;;;4.72;;
44476;SDS011;30180;44.788;10.366;2022-11-20T00:53:46;7.83;;;4.30;;
44476;SDS011;30180;44.788;10.366;2022-11-20T00:56:16;7.27;;;4.20;;
44476;SDS011;30180;44.788;10.366;2022-11-20T00:58:45;7.28;;;4.28;;
44476;SDS011;30180;44.788;10.366;2022-11-20T01:01:16;9.57;;;4.47;;
44476;SDS011;30180;44.788;10.366;2022-11-20T01:03:47;9.80;;;4.32;;
44476;SDS011;30180;44.788;10.366;2022-11-20T01:06:16;10.00;;;5.53;;
44476;SDS011;30180;44.788;10.366;2022-11-20T01:08:46;7.80;;;3.85;;
44476;SDS011;30180;44.788;10.366;2022-11-20T01:11:16;9.93;;;4.57;;
44476;SDS011;30180;44.788;10.366;2022-11-20T01:13:46;6.50;;;3.70;;
44476;SDS011;30180;44.788;10.366;2022-11-20T01:16:16;6.30;;;3.80;;
44476;SDS011;30180;44.788;10.366;2022-11-20T01:18:46;8.38;;;4.15;;
44476;SDS011;30180;44.788;10.366;2022-11-20T01:23:47;6.13;;;3.55;;
44476;SDS011;30180;44.788;10.366;2022-11-20T01:26:18;7.93;;;4.18;;
44476;SDS011;30180;44.788;10.366;2022-11-20T01:28:47;10.45;;;4.60;;
44476;SDS011;30180;44.788;10.366;2022-11-20T01:31:17;6.00;;;4.00;;
44476;SDS011;30180;44.788;10.366;2022-11-20T01:33:47;6.43;;;3.85;;
44476;SDS011;30180;44.788;10.366;2022-11-20T01:36:16;9.40;;;4.07;;
44476;SDS011;30180;44.788;10.366;2022-11-20T01:38:47;7.65;;;4.15;;
44476;SDS011;30180;44.788;10.366;2022-11-20T01:41:18;9.13;;;4.50;;
44476;SDS011;30180;44.788;10.366;2022-11-20T01:44:01;6.97;;;4.13;;
44476;SDS011;30180;44.788;10.366;2022-11-20T01:46:31;7.47;;;4.07;;
44476;SDS011;30180;44.788;10.366;2022-11-20T01:49:00;8.32;;;4.28;;
44476;SDS011;30180;44.788;10.366;2022-11-20T01:51:32;7.57;;;4.30;;
44476;SDS011;30180;44.788;10.366;2022-11-20T01:54:04;7.63;;;4.20;;
44476;SDS011;30180;44.788;10.366;2022-11-20T01:56:36;7.75;;;3.83;;
44476;SDS011;30180;44.788;10.366;2022-11-20T01:59:06;7.18;;;3.60;;
44476;SDS011;30180;44.788;10.366;2022-11-20T02:01:37;8.90;;;4.53;;
44476;SDS011;30180;44.788;10.366;2022-11-20T02:04:06;7.47;;;3.97;;
44476;SDS011;30180;44.788;10.366;2022-11-20T02:06:35;7.63;;;4.03;;
44476;SDS011;30180;44.788;10.366;2022-11-20T02:09:10;8.10;;;4.15;;
44476;SDS011;30180;44.788;10.366;2022-11-20T02:11:38;6.57;;;3.80;;
44476;SDS011;30180;44.788;10.366;2022-11-20T02:14:06;8.73;;;4.63;;
44476;SDS011;30180;44.788;10.366;2022-11-20T02:16:35;7.00;;;3.95;;
44476;SDS011;30180;44.788;10.366;2022-11-20T02:19:08;6.60;;;3.40;;
44476;SDS011;30180;44.788;10.366;2022-11-20T02:21:49;9.15;;;4.05;;
44476;SDS011;30180;44.788;10.366;2022-11-20T02:24:26;7.60;;;4.53;;
44476;SDS011;30180;44.788;10.366;2022-11-20T02:26:56;6.95;;;4.25;;
44476;SDS011;30180;44.788;10.366;2022-11-20T02:29:29;7.40;;;4.20;;
44476;SDS011;30180;44.788;10.366;2022-11-20T02:32:01;7.30;;;3.58;;
44476;SDS011;30180;44.788;10.366;2022-11-20T02:34:30;7.13;;;4.07;;
44476;SDS011;30180;44.788;10.366;2022-11-20T02:36:58;7.10;;;3.80;;
44476;SDS011;30180;44.788;10.366;2022-11-20T02:39:28;6.10;;;4.00;;
44476;SDS011;30180;44.788;10.366;2022-11-20T02:41:56;7.20;;;3.85;;
44476;SDS011;30180;44.788;10.366;2022-11-20T02:44:25;7.13;;;3.95;;
44476;SDS011;30180;44.788;10.366;2022-11-20T02:46:53;5.63;;;3.50;;
44476;SDS011;30180;44.788;10.366;2022-11-20T02:49:24;6.65;;;4.03;;
44476;SDS011;30180;44.788;10.366;2022-11-20T02:51:52;7.50;;;3.70;;
44476;SDS011;30180;44.788;10.366;2022-11-20T02:54:20;7.03;;;3.95;;
44476;SDS011;30180;44.788;10.366;2022-11-20T02:56:50;6.93;;;3.92;;
44476;SDS011;30180;44.788;10.366;2022-11-20T02:59:18;6.90;;;3.63;;
44476;SDS011;30180;44.788;10.366;2022-11-20T03:01:47;7.50;;;3.90;;
44476;SDS011;30180;44.788;10.366;2022-11-20T03:04:15;7.55;;;4.28;;
44476;SDS011;30180;44.788;10.366;2022-11-20T03:06:44;7.97;;;3.92;;
44476;SDS011;30180;44.788;10.366;2022-11-20T03:09:12;6.68;;;3.80;;
44476;SDS011;30180;44.788;10.366;2022-11-20T03:11:40;7.13;;;3.92;;
44476;SDS011;30180;44.788;10.366;2022-11-20T03:14:10;8.60;;;4.50;;
44476;SDS011;30180;44.788;10.366;2022-11-20T03:16:38;7.45;;;3.72;;
44476;SDS011;30180;44.788;10.366;2022-11-20T03:19:06;6.85;;;3.47;;
44476;SDS011;30180;44.788;10.366;2022-11-20T03:21:34;6.00;;;3.83;;
44476;SDS011;30180;44.788;10.366;2022-11-20T03:24:03;7.20;;;3.85;;
44476;SDS011;30180;44.788;10.366;2022-11-20T03:26:31;6.47;;;3.63;;
44476;SDS011;30180;44.788;10.366;2022-11-20T03:29:00;5.95;;;3.35;;
44476;SDS011;30180;44.788;10.366;2022-11-20T03:31:32;6.60;;;3.63;;
44476;SDS011;30180;44.788;10.366;2022-11-20T03:34:02;6.93;;;3.38;;
44476;SDS011;30180;44.788;10.366;2022-11-20T03:36:31;6.47;;;3.53;;
44476;SDS011;30180;44.788;10.366;2022-11-20T03:38:59;6.10;;;3.28;;
44476;SDS011;30180;44.788;10.366;2022-11-20T03:41:28;6.32;;;3.50;;
44476;SDS011;30180;44.788;10.366;2022-11-20T03:43:58;8.02;;;3.10;;
44476;SDS011;30180;44.788;10.366;2022-11-20T03:46:27;6.03;;;3.40;;
44476;SDS011;30180;44.788;10.366;2022-11-20T03:48:57;7.60;;;3.67;;
44476;SDS011;30180;44.788;10.366;2022-11-20T03:51:26;7.07;;;3.30;;
44476;SDS011;30180;44.788;10.366;2022-11-20T03:53:56;6.28;;;3.70;;
44476;SDS011;30180;44.788;10.366;2022-11-20T03:56:27;5.88;;;3.65;;
44476;SDS011;30180;44.788;10.366;2022-11-20T03:58:56;6.80;;;3.58;;
44476;SDS011;30180;44.788;10.366;2022-11-20T04:01:25;6.65;;;3.40;;
44476;SDS011;30180;44.788;10.366;2022-11-20T04:03:56;6.33;;;3.60;;
44476;SDS011;30180;44.788;10.366;2022-11-20T04:06:26;6.43;;;3.30;;
44476;SDS011;30180;44.788;10.366;2022-11-20T04:08:56;6.35;;;3.75;;
44476;SDS011;30180;44.788;10.366;2022-11-20T04:11:26;6.50;;;3.35;;
44476;SDS011;30180;44.788;10.366;2022-11-20T04:13:57;6.63;;;3.72;;
44476;SDS011;30180;44.788;10.366;2022-11-20T04:16:28;6.07;;;3.40;;
44476;SDS011;30180;44.788;10.366;2022-11-20T04:19:00;5.60;;;3.40;;
44476;SDS011;30180;44.788;10.366;2022-11-20T04:21:29;5.78;;;3.28;;
44476;SDS011;30180;44.788;10.366;2022-11-20T04:23:57;5.63;;;3.33;;
44476;SDS011;30180;44.788;10.366;2022-11-20T04:26:26;7.05;;;3.85;;
44476;SDS011;30180;44.788;10.366;2022-11-20T04:28:55;5.47;;;3.08;;
44476;SDS011;30180;44.788;10.366;2022-11-20T04:31:25;7.38;;;3.72;;
44476;SDS011;30180;44.788;10.366;2022-11-20T04:33:54;6.73;;;3.37;;
44476;SDS011;30180;44.788;10.366;2022-11-20T04:36:27;7.95;;;3.85;;
44476;SDS011;30180;44.788;10.366;2022-11-20T04:38:56;6.57;;;3.63;;
44476;SDS011;30180;44.788;10.366;2022-11-20T04:41:26;7.00;;;3.42;;
44476;SDS011;30180;44.788;10.366;2022-11-20T04:43:55;6.10;;;3.17;;
44476;SDS011;30180;44.788;10.366;2022-11-20T04:46:29;5.93;;;3.50;;
44476;SDS011;30180;44.788;10.366;2022-11-20T04:48:58;5.47;;;3.15;;
44476;SDS011;30180;44.788;10.366;2022-11-20T04:51:28;6.05;;;3.22;;
44476;SDS011;30180;44.788;10.366;2022-11-20T04:53:56;7.57;;;3.28;;
44476;SDS011;30180;44.788;10.366;2022-11-20T04:56:24;5.60;;;3.35;;
44476;SDS011;30180;44.788;10.366;2022-11-20T04:58:53;6.30;;;3.33;;
44476;SDS011;30180;44.788;10.366;2022-11-20T05:01:22;6.22;;;3.25;;
44476;SDS011;30180;44.788;10.366;2022-11-20T05:03:51;7.72;;;3.88;;
44476;SDS011;30180;44.788;10.366;2022-11-20T05:06:20;5.43;;;3.28;;
44476;SDS011;30180;44.788;10.366;2022-11-20T05:08:51;8.25;;;3.65;;
44476;SDS011;30180;44.788;10.366;2022-11-20T05:11:19;5.88;;;3.38;;
44476;SDS011;30180;44.788;10.366;2022-11-20T05:13:48;4.88;;;3.05;;
44476;SDS011;30180;44.788;10.366;2022-11-20T05:16:17;5.80;;;3.45;;
44476;SDS011;30180;44.788;10.366;2022-11-20T05:18:47;5.82;;;3.28;;
44476;SDS011;30180;44.788;10.366;2022-11-20T05:21:16;4.97;;;3.30;;
44476;SDS011;30180;44.788;10.366;2022-11-20T05:23:45;5.05;;;3.22;;
44476;SDS011;30180;44.788;10.366;2022-11-20T05:26:15;5.95;;;3.80;;
44476;SDS011;30180;44.788;10.366;2022-11-20T05:28:44;5.00;;;3.20;;
44476;SDS011;30180;44.788;10.366;2022-11-20T05:31:14;6.05;;;3.67;;
44476;SDS011;30180;44.788;10.366;2022-11-20T05:33:51;5.47;;;3.08;;
44476;SDS011;30180;44.788;10.366;2022-11-20T05:36:19;6.78;;;3.45;;
44476;SDS011;30180;44.788;10.366;2022-11-20T05:38:48;5.68;;;3.30;;
44476;SDS011;30180;44.788;10.366;2022-11-20T05:41:20;5.88;;;3.47;;
44476;SDS011;30180;44.788;10.366;2022-11-20T05:43:49;6.25;;;3.50;;
44476;SDS011;30180;44.788;10.366;2022-11-20T05:46:18;5.57;;;3.15;;
44476;SDS011;30180;44.788;10.366;2022-11-20T05:48:54;5.63;;;3.05;;
44476;SDS011;30180;44.788;10.366;2022-11-20T05:51:23;5.60;;;3.15;;
44476;SDS011;30180;44.788;10.366;2022-11-20T05:53:52;6.00;;;3.08;;
44476;SDS011;30180;44.788;10.366;2022-11-20T05:56:22;5.80;;;3.42;;
44476;SDS011;30180;44.788;10.366;2022-11-20T05:58:50;6.13;;;3.13;;
44476;SDS011;30180;44.788;10.366;2022-11-20T06:01:19;5.75;;;3.33;;
44476;SDS011;30180;44.788;10.366;2022-11-20T06:03:48;7.63;;;3.58;;
44476;SDS011;30180;44.788;10.366;2022-11-20T06:06:18;5.65;;;3.15;;
44476;SDS011;30180;44.788;10.366;2022-11-20T06:08:47;11.15;;;3.22;;
44476;SDS011;30180;44.788;10.366;2022-11-20T06:11:15;5.78;;;3.17;;
44476;SDS011;30180;44.788;10.366;2022-11-20T06:13:46;12.23;;;3.47;;
44476;SDS011;30180;44.788;10.366;2022-11-20T06:16:14;10.02;;;3.15;;
44476;SDS011;30180;44.788;10.366;2022-11-20T06:18:44;11.63;;;3.78;;
44476;SDS011;30180;44.788;10.366;2022-11-20T06:21:13;11.40;;;3.67;;
44476;SDS011;30180;44.788;10.366;2022-11-20T06:23:42;10.10;;;3.60;;
44476;SDS011;30180;44.788;10.366;2022-11-20T06:26:12;16.50;;;3.60;;
44476;SDS011;30180;44.788;10.366;2022-11-20T06:28:41;15.07;;;3.83;;
44476;SDS011;30180;44.788;10.366;2022-11-20T06:31:11;16.50;;;3.17;;
44476;SDS011;30180;44.788;10.366;2022-11-20T06:36:09;17.85;;;4.03;;
44476;SDS011;30180;44.788;10.366;2022-11-20T06:38:38;13.60;;;3.42;;
44476;SDS011;30180;44.788;10.366;2022-11-20T06:41:07;14.40;;;3.53;;
44476;SDS011;30180;44.788;10.366;2022-11-20T06:43:38;9.32;;;4.03;;
44476;SDS011;30180;44.788;10.366;2022-11-20T06:46:08;20.98;;;4.03;;
44476;SDS011;30180;44.788;10.366;2022-11-20T06:48:39;15.18;;;4.10;;
44476;SDS011;30180;44.788;10.366;2022-11-20T06:51:07;15.38;;;3.50;;
44476;SDS011;30180;44.788;10.366;2022-11-20T06:53:36;17.33;;;4.05;;
44476;SDS011;30180;44.788;10.366;2022-11-20T06:56:04;13.77;;;3.40;;
44476;SDS011;30180;44.788;10.366;2022-11-20T06:58:33;21.88;;;4.40;;
44476;SDS011;30180;44.788;10.366;2022-11-20T07:01:03;25.77;;;4.10;;
44476;SDS011;30180;44.788;10.366;2022-11-20T07:03:34;20.95;;;3.92;;
44476;SDS011;30180;44.788;10.366;2022-11-20T07:06:03;30.25;;;4.50;;
44476;SDS011;30180;44.788;10.366;2022-11-20T07:08:32;16.67;;;3.75;;
44476;SDS011;30180;44.788;10.366;2022-11-20T07:11:01;13.75;;;3.80;;
44476;SDS011;30180;44.788;10.366;2022-11-20T07:13:31;22.45;;;3.58;;
44476;SDS011;30180;44.788;10.366;2022-11-20T07:15:59;18.50;;;4.30;;
44476;SDS011;30180;44.788;10.366;2022-11-20T07:18:28;14.50;;;3.80;;
44476;SDS011;30180;44.788;10.366;2022-11-20T07:21:00;21.10;;;3.83;;
44476;SDS011;30180;44.788;10.366;2022-11-20T07:23:29;27.70;;;4.25;;
44476;SDS011;30180;44.788;10.366;2022-11-20T07:25:57;14.18;;;3.80;;
44476;SDS011;30180;44.788;10.366;2022-11-20T07:28:25;17.20;;;3.72;;
44476;SDS011;30180;44.788;10.366;2022-11-20T07:30:54;20.90;;;3.72;;
44476;SDS011;30180;44.788;10.366;2022-11-20T07:33:22;18.77;;;3.65;;
44476;SDS011;30180;44.788;10.366;2022-11-20T07:35:51;14.93;;;4.35;;
44476;SDS011;30180;44.788;10.366;2022-11-20T07:38:21;22.00;;;3.92;;
44476;SDS011;30180;44.788;10.366;2022-11-20T07:40:53;23.47;;;4.00;;
44476;SDS011;30180;44.788;10.366;2022-11-20T07:43:21;15.48;;;3.88;;
44476;SDS011;30180;44.788;10.366;2022-11-20T07:45:50;19.48;;;3.95;;
44476;SDS011;30180;44.788;10.366;2022-11-20T07:48:18;16.10;;;3.90;;
44476;SDS011;30180;44.788;10.366;2022-11-20T07:50:46;23.83;;;4.22;;
44476;SDS011;30180;44.788;10.366;2022-11-20T07:53:14;17.15;;;3.97;;
44476;SDS011;30180;44.788;10.366;2022-11-20T07:55:48;20.38;;;4.30;;
44476;SDS011;30180;44.788;10.366;2022-11-20T07:58:18;17.92;;;4.35;;
44476;SDS011;30180;44.788;10.366;2022-11-20T08:00:46;15.68;;;3.70;;
44476;SDS011;30180;44.788;10.366;2022-11-20T08:03:15;21.42;;;3.88;;
44476;SDS011;30180;44.788;10.366;2022-11-20T08:05:50;12.90;;;4.00;;
44476;SDS011;30180;44.788;10.366;2022-11-20T08:08:18;14.85;;;4.15;;
44476;SDS011;30180;44.788;10.366;2022-11-20T08:10:47;17.92;;;3.40;;
44476;SDS011;30180;44.788;10.366;2022-11-20T08:13:15;13.27;;;3.55;;
44476;SDS011;30180;44.788;10.366;2022-11-20T08:16:01;16.70;;;3.78;;
44476;SDS011;30180;44.788;10.366;2022-11-20T08:18:29;9.38;;;3.78;;
44476;SDS011;30180;44.788;10.366;2022-11-20T08:21:01;18.38;;;3.42;;
44476;SDS011;30180;44.788;10.366;2022-11-20T08:23:29;12.77;;;3.90;;
44476;SDS011;30180;44.788;10.366;2022-11-20T08:25:59;12.90;;;3.70;;
44476;SDS011;30180;44.788;10.366;2022-11-20T08:28:28;18.02;;;4.15;;
44476;SDS011;30180;44.788;10.366;2022-11-20T08:30:57;18.88;;;4.43;;
44476;SDS011;30180;44.788;10.366;2022-11-20T08:33:26;21.90;;;7.80;;
44476;SDS011;30180;44.788;10.366;2022-11-20T08:35:57;34.20;;;13.07;;
44476;SDS011;30180;44.788;10.366;2022-11-20T08:38:27;37.20;;;14.73;;
44476;SDS011;30180;44.788;10.366;2022-11-20T08:40:56;27.05;;;14.10;;
44476;SDS011;30180;44.788;10.366;2022-11-20T08:43:43;27.58;;;15.63;;
44476;SDS011;30180;44.788;10.366;2022-11-20T08:46:11;36.20;;;15.02;;
44476;SDS011;30180;44.788;10.366;2022-11-20T08:48:40;40.60;;;15.57;;
44476;SDS011;30180;44.788;10.366;2022-11-20T08:51:08;43.88;;;15.02;;
44476;SDS011;30180;44.788;10.366;2022-11-20T08:53:37;33.15;;;14.23;;
44476;SDS011;30180;44.788;10.366;2022-11-20T08:56:05;36.95;;;14.88;;
44476;SDS011;30180;44.788;10.366;2022-11-20T08:58:36;50.07;;;15.23;;
44476;SDS011;30180;44.788;10.366;2022-11-20T09:01:25;42.13;;;13.70;;
44476;SDS011;30180;44.788;10.366;2022-11-20T09:06:24;43.13;;;13.38;;
44476;SDS011;30180;44.788;10.366;2022-11-20T09:08:52;38.22;;;13.65;;
44476;SDS011;30180;44.788;10.366;2022-11-20T09:11:20;38.72;;;13.82;;
44476;SDS011;30180;44.788;10.366;2022-11-20T09:13:49;51.40;;;14.05;;
44476;SDS011;30180;44.788;10.366;2022-11-20T09:16:17;37.65;;;14.02;;
44476;SDS011;30180;44.788;10.366;2022-11-20T09:18:49;43.53;;;13.88;;
44476;SDS011;30180;44.788;10.366;2022-11-20T09:21:37;44.05;;;13.70;;
44476;SDS011;30180;44.788;10.366;2022-11-20T09:24:05;51.28;;;14.93;;
44476;SDS011;30180;44.788;10.366;2022-11-20T09:26:34;30.23;;;12.90;;
44476;SDS011;30180;44.788;10.366;2022-11-20T09:29:02;49.17;;;13.63;;
44476;SDS011;30180;44.788;10.366;2022-11-20T09:31:31;43.00;;;13.68;;
44476;SDS011;30180;44.788;10.366;2022-11-20T09:34:00;33.50;;;13.90;;
44476;SDS011;30180;44.788;10.366;2022-11-20T09:36:28;38.10;;;13.63;;
44476;SDS011;30180;44.788;10.366;2022-11-20T09:38:57;33.78;;;13.07;;
44476;SDS011;30180;44.788;10.366;2022-11-20T09:44:19;35.13;;;13.20;;
44476;SDS011;30180;44.788;10.366;2022-11-20T09:47:01;33.05;;;12.48;;
44476;SDS011;30180;44.788;10.366;2022-11-20T09:49:40;35.17;;;13.20;;
44476;SDS011;30180;44.788;10.366;2022-11-20T09:52:26;32.55;;;12.55;;
44476;SDS011;30180;44.788;10.366;2022-11-20T09:55:04;37.88;;;12.75;;
44476;SDS011;30180;44.788;10.366;2022-11-20T09:57:36;37.33;;;12.52;;
44476;SDS011;30180;44.788;10.366;2022-11-20T10:00:09;31.25;;;13.35;;
44476;SDS011;30180;44.788;10.366;2022-11-20T10:02:40;34.00;;;13.00;;
44476;SDS011;30180;44.788;10.366;2022-11-20T10:05:17;28.08;;;13.65;;
44476;SDS011;30180;44.788;10.366;2022-11-20T10:07:48;35.97;;;13.40;;
44476;SDS011;30180;44.788;10.366;2022-11-20T10:10:26;112.40;;;16.02;;
44476;SDS011;30180;44.788;10.366;2022-11-20T10:13:15;48.42;;;14.55;;
44476;SDS011;30180;44.788;10.366;2022-11-20T10:15:53;39.10;;;14.05;;
44476;SDS011;30180;44.788;10.366;2022-11-20T10:18:35;33.95;;;13.50;;
44476;SDS011;30180;44.788;10.366;2022-11-20T10:21:15;54.33;;;14.48;;
44476;SDS011;30180;44.788;10.366;2022-11-20T10:23:57;47.45;;;14.00;;
44476;SDS011;30180;44.788;10.366;2022-11-20T10:26:46;51.22;;;13.18;;
44476;SDS011;30180;44.788;10.366;2022-11-20T10:29:21;51.80;;;13.80;;
44476;SDS011;30180;44.788;10.366;2022-11-20T10:31:57;42.92;;;13.10;;
44476;SDS011;30180;44.788;10.366;2022-11-20T10:34:30;45.83;;;13.23;;
44476;SDS011;30180;44.788;10.366;2022-11-20T10:37:05;58.13;;;13.32;;
44476;SDS011;30180;44.788;10.366;2022-11-20T10:39:39;59.80;;;13.27;;
44476;SDS011;30180;44.788;10.366;2022-11-20T10:42:14;58.28;;;13.45;;
44476;SDS011;30180;44.788;10.366;2022-11-20T10:44:49;69.55;;;12.70;;
44476;SDS011;30180;44.788;10.366;2022-11-20T10:47:32;54.10;;;13.93;;
44476;SDS011;30180;44.788;10.366;2022-11-20T10:50:01;64.85;;;13.40;;
44476;SDS011;30180;44.788;10.366;2022-11-20T10:52:35;55.00;;;14.85;;
44476;SDS011;30180;44.788;10.366;2022-11-20T10:55:16;64.25;;;13.93;;
44476;SDS011;30180;44.788;10.366;2022-11-20T10:57:54;58.40;;;14.10;;
44476;SDS011;30180;44.788;10.366;2022-11-20T11:00:26;49.63;;;13.02;;
44476;SDS011;30180;44.788;10.366;2022-11-20T11:02:54;40.13;;;14.00;;
44476;SDS011;30180;44.788;10.366;2022-11-20T11:05:36;54.58;;;15.77;;
44476;SDS011;30180;44.788;10.366;2022-11-20T11:08:10;55.35;;;18.02;;
44476;SDS011;30180;44.788;10.366;2022-11-20T11:10:42;48.90;;;19.15;;
44476;SDS011;30180;44.788;10.366;2022-11-20T11:13:21;39.75;;;19.58;;
44476;SDS011;30180;44.788;10.366;2022-11-20T11:15:51;36.85;;;19.05;;
44476;SDS011;30180;44.788;10.366;2022-11-20T11:18:23;39.88;;;18.95;;
44476;SDS011;30180;44.788;10.366;2022-11-20T11:20:53;39.10;;;17.42;;
44476;SDS011;30180;44.788;10.366;2022-11-20T11:23:28;47.28;;;19.08;;
44476;SDS011;30180;44.788;10.366;2022-11-20T11:26:00;65.93;;;18.83;;
44476;SDS011;30180;44.788;10.366;2022-11-20T11:28:30;37.65;;;15.43;;
44476;SDS011;30180;44.788;10.366;2022-11-20T11:30:58;35.28;;;15.85;;
44476;SDS011;30180;44.788;10.366;2022-11-20T11:33:27;45.30;;;16.00;;
44476;SDS011;30180;44.788;10.366;2022-11-20T11:35:56;36.60;;;15.52;;
44476;SDS011;30180;44.788;10.366;2022-11-20T11:38:30;45.25;;;15.40;;
44476;SDS011;30180;44.788;10.366;2022-11-20T11:41:02;42.90;;;14.70;;
44476;SDS011;30180;44.788;10.366;2022-11-20T11:43:32;37.45;;;14.50;;
44476;SDS011;30180;44.788;10.366;2022-11-20T11:46:23;37.90;;;15.55;;
44476;SDS011;30180;44.788;10.366;2022-11-20T11:48:57;40.25;;;14.48;;
44476;SDS011;30180;44.788;10.366;2022-11-20T11:51:28;43.80;;;14.15;;
44476;SDS011;30180;44.788;10.366;2022-11-20T11:54:05;51.05;;;14.20;;
44476;SDS011;30180;44.788;10.366;2022-11-20T11:56:42;51.83;;;14.10;;
44476;SDS011;30180;44.788;10.366;2022-11-20T11:59:12;48.72;;;16.75;;
44476;SDS011;30180;44.788;10.366;2022-11-20T12:01:51;57.83;;;17.88;;
44476;SDS011;30180;44.788;10.366;2022-11-20T12:04:25;51.60;;;18.75;;
44476;SDS011;30180;44.788;10.366;2022-11-20T12:07:03;51.65;;;19.92;;
44476;SDS011;30180;44.788;10.366;2022-11-20T12:09:59;49.92;;;19.17;;
44476;SDS011;30180;44.788;10.366;2022-11-20T12:12:30;53.28;;;21.13;;
44476;SDS011;30180;44.788;10.366;2022-11-20T12:15:04;49.53;;;19.45;;
44476;SDS011;30180;44.788;10.366;2022-11-20T12:17:37;56.00;;;19.83;;
44476;SDS011;30180;44.788;10.366;2022-11-20T12:20:10;51.42;;;18.50;;
44476;SDS011;30180;44.788;10.366;2022-11-20T12:22:41;46.63;;;18.08;;
44476;SDS011;30180;44.788;10.366;2022-11-20T12:25:19;43.78;;;19.58;;
44476;SDS011;30180;44.788;10.366;2022-11-20T12:27:57;49.00;;;20.27;;
44476;SDS011;30180;44.788;10.366;2022-11-20T12:30:47;49.72;;;20.65;;
44476;SDS011;30180;44.788;10.366;2022-11-20T12:33:30;43.40;;;18.98;;
44476;SDS011;30180;44.788;10.366;2022-11-20T12:36:17;40.17;;;19.83;;
44476;SDS011;30180;44.788;10.366;2022-11-20T12:38:59;52.53;;;20.80;;
44476;SDS011;30180;44.788;10.366;2022-11-20T12:41:43;47.38;;;19.92;;
44476;SDS011;30180;44.788;10.366;2022-11-20T12:44:43;41.35;;;19.35;;
44476;SDS011;30180;44.788;10.366;2022-11-20T12:50:39;44.30;;;20.27;;
44476;SDS011;30180;44.788;10.366;2022-11-20T12:53:37;40.60;;;20.63;;
44476;SDS011;30180;44.788;10.366;2022-11-20T12:56:19;42.55;;;19.30;;
44476;SDS011;30180;44.788;10.366;2022-11-20T12:59:02;38.67;;;19.60;;
44476;SDS011;30180;44.788;10.366;2022-11-20T13:01:49;43.40;;;20.85;;
44476;SDS011;30180;44.788;10.366;2022-11-20T13:04:24;42.70;;;19.63;;
44476;SDS011;30180;44.788;10.366;2022-11-20T13:07:07;41.88;;;19.80;;
44476;SDS011;30180;44.788;10.366;2022-11-20T13:09:40;40.20;;;18.85;;
44476;SDS011;30180;44.788;10.366;2022-11-20T13:12:13;39.85;;;18.25;;
44476;SDS011;30180;44.788;10.366;2022-11-20T13:14:50;36.10;;;18.15;;
44476;SDS011;30180;44.788;10.366;2022-11-20T13:17:28;32.83;;;17.35;;
44476;SDS011;30180;44.788;10.366;2022-11-20T13:20:01;35.10;;;17.75;;
44476;SDS011;30180;44.788;10.366;2022-11-20T13:25:10;36.10;;;18.50;;
44476;SDS011;30180;44.788;10.366;2022-11-20T13:27:49;35.55;;;18.35;;
44476;SDS011;30180;44.788;10.366;2022-11-20T13:30:20;33.28;;;18.80;;
44476;SDS011;30180;44.788;10.366;2022-11-20T13:32:50;33.67;;;18.05;;
44476;SDS011;30180;44.788;10.366;2022-11-20T13:35:24;31.23;;;17.25;;
44476;SDS011;30180;44.788;10.366;2022-11-20T13:38:02;35.13;;;17.42;;
44476;SDS011;30180;44.788;10.366;2022-11-20T13:40:33;32.33;;;17.15;;
44476;SDS011;30180;44.788;10.366;2022-11-20T13:43:15;30.10;;;17.38;;
44476;SDS011;30180;44.788;10.366;2022-11-20T13:45:57;29.45;;;16.75;;
44476;SDS011;30180;44.788;10.366;2022-11-20T13:48:28;30.38;;;17.63;;
44476;SDS011;30180;44.788;10.366;2022-11-20T13:54:00;29.95;;;16.17;;
44476;SDS011;30180;44.788;10.366;2022-11-20T13:56:53;33.83;;;16.88;;
44476;SDS011;30180;44.788;10.366;2022-11-20T14:02:19;30.30;;;16.83;;
44476;SDS011;30180;44.788;10.366;2022-11-20T14:04:51;33.13;;;16.65;;
44476;SDS011;30180;44.788;10.366;2022-11-20T14:07:21;30.48;;;15.38;;
44476;SDS011;30180;44.788;10.366;2022-11-20T14:09:53;34.05;;;17.20;;
44476;SDS011;30180;44.788;10.366;2022-11-20T14:12:26;25.08;;;14.88;;
44476;SDS011;30180;44.788;10.366;2022-11-20T14:14:57;29.30;;;15.57;;
44476;SDS011;30180;44.788;10.366;2022-11-20T14:17:30;27.65;;;15.35;;
44476;SDS011;30180;44.788;10.366;2022-11-20T14:20:01;28.83;;;14.98;;
44476;SDS011;30180;44.788;10.366;2022-11-20T14:22:32;29.38;;;15.05;;
44476;SDS011;30180;44.788;10.366;2022-11-20T14:25:02;26.05;;;14.90;;
44476;SDS011;30180;44.788;10.366;2022-11-20T14:27:33;29.67;;;15.07;;
44476;SDS011;30180;44.788;10.366;2022-11-20T14:30:04;30.17;;;14.02;;
44476;SDS011;30180;44.788;10.366;2022-11-20T14:32:35;27.10;;;13.65;;
44476;SDS011;30180;44.788;10.366;2022-11-20T14:35:06;24.98;;;13.35;;
44476;SDS011;30180;44.788;10.366;2022-11-20T14:37:37;24.20;;;13.50;;
44476;SDS011;30180;44.788;10.366;2022-11-20T14:42:51;27.33;;;12.52;;
44476;SDS011;30180;44.788;10.366;2022-11-20T14:45:19;28.30;;;12.80;;
44476;SDS011;30180;44.788;10.366;2022-11-20T14:47:50;22.70;;;12.43;;
44476;SDS011;30180;44.788;10.366;2022-11-20T14:50:22;24.95;;;12.52;;
44476;SDS011;30180;44.788;10.366;2022-11-20T14:52:55;26.38;;;12.52;;
44476;SDS011;30180;44.788;10.366;2022-11-20T14:55:25;23.02;;;12.15;;
44476;SDS011;30180;44.788;10.366;2022-11-20T14:57:58;24.40;;;12.23;;
44476;SDS011;30180;44.788;10.366;2022-11-20T15:00:28;23.00;;;11.77;;
44476;SDS011;30180;44.788;10.366;2022-11-20T15:02:59;22.63;;;11.60;;
44476;SDS011;30180;44.788;10.366;2022-11-20T15:05:44;21.02;;;11.98;;
44476;SDS011;30180;44.788;10.366;2022-11-20T15:08:14;24.52;;;11.57;;
44476;SDS011;30180;44.788;10.366;2022-11-20T15:10:45;18.65;;;11.25;;
44476;SDS011;30180;44.788;10.366;2022-11-20T15:13:20;18.48;;;10.15;;